Milwaukee, Wisconsin
Traffic Map
Current Weather Conditions
Milwaukee, Wisconsin
Broken Clouds
Broken Clouds
73°
Feels Like: 73°
Wind Chill: 73° Ceiling: 4800
Heat Index: 73° Visibility: 10mi
Dew Point: 59° Wind: 16mph
Humidity: 61% Direction: 230° (SW)
Pressure: 29.97in Gusts: 23mph
Raw Report DataKMKE 291652Z 23014G20KT 10SM FEW027 SCT038 BKN048 23/15 A2997 RMK AO2 SLP146 T02280150
Traffic Incident Summary
Active as of:
Severity:
Category:
InformationThere was an issue retrieving the traffic information for this location. Please try a different location or try again shortly.
Advertisements
Track Severe Weather on mobile